createdAt,value
2019-04-30T00:00:22.939Z,7.71
2019-04-30T00:01:22.932Z,7.71
2019-04-30T00:02:22.924Z,7.71
2019-04-30T00:03:24.915Z,7.68
2019-04-30T00:04:22.902Z,7.72
2019-04-30T00:05:22.906Z,7.68
2019-04-30T00:06:28.798Z,7.79
2019-04-30T00:07:24.868Z,7.80
2019-04-30T00:08:22.872Z,7.77
2019-04-30T00:09:22.844Z,7.79
2019-04-30T00:10:29.073Z,7.74
2019-04-30T00:11:25.096Z,7.85
2019-04-30T00:12:22.828Z,7.86
2019-04-30T00:13:22.821Z,7.77
2019-04-30T00:14:22.794Z,7.86
2019-04-30T00:15:22.782Z,7.79
2019-04-30T00:16:22.777Z,7.77
2019-04-30T00:17:22.756Z,7.82
2019-04-30T00:18:22.765Z,7.85
2019-04-30T00:19:22.735Z,7.85
2019-04-30T00:20:22.749Z,7.74
2019-04-30T00:21:22.729Z,7.64
2019-04-30T00:22:31.718Z,7.60
2019-04-30T00:23:27.219Z,7.60
2019-04-30T00:24:25.845Z,7.61
2019-04-30T00:25:24.962Z,7.49
2019-04-30T00:26:25.314Z,7.50
2019-04-30T00:27:28.400Z,7.49
2019-04-30T00:28:25.419Z,7.45
2019-04-30T00:29:26.926Z,7.40
2019-04-30T00:30:25.228Z,7.30
2019-04-30T00:31:23.867Z,7.28
2019-04-30T00:32:22.596Z,7.17
2019-04-30T00:33:25.119Z,7.28
2019-04-30T00:34:22.572Z,7.30
2019-04-30T00:35:22.563Z,7.42
2019-04-30T00:36:27.131Z,7.37
2019-04-30T00:37:25.342Z,7.37
2019-04-30T00:38:22.551Z,7.40
2019-04-30T00:39:22.523Z,7.42
2019-04-30T00:40:26.790Z,7.43
2019-04-30T00:41:25.535Z,7.45
2019-04-30T00:42:24.456Z,7.42
2019-04-30T00:43:25.200Z,7.37
2019-04-30T00:44:24.826Z,7.27
2019-04-30T00:45:25.128Z,7.31
2019-04-30T00:46:24.927Z,7.24
2019-04-30T00:47:25.257Z,7.17
2019-04-30T00:48:28.021Z,7.24
2019-04-30T00:49:26.495Z,7.12
2019-04-30T00:50:22.399Z,7.05
2019-04-30T00:51:22.417Z,6.98
2019-04-30T00:52:22.381Z,7.02
2019-04-30T00:53:22.368Z,7.03
2019-04-30T00:54:27.101Z,7.03
2019-04-30T00:55:24.913Z,7.03
2019-04-30T00:56:24.808Z,6.95
2019-04-30T00:57:26.303Z,6.99
2019-04-30T00:58:29.008Z,6.95
2019-04-30T00:59:24.937Z,6.94
2019-04-30T01:00:25.961Z,6.91
2019-04-30T01:01:25.201Z,7.02
2019-04-30T01:02:30.470Z,7.03
2019-04-30T01:03:23.278Z,7.02
2019-04-30T01:04:24.473Z,7.07
2019-04-30T01:05:23.237Z,7.09
2019-04-30T01:06:24.617Z,7.02
2019-04-30T01:07:23.213Z,7.05
2019-04-30T01:08:27.197Z,7.06
2019-04-30T01:09:23.214Z,6.98
2019-04-30T01:10:24.755Z,6.88
2019-04-30T01:11:23.171Z,6.94
2019-04-30T01:12:27.707Z,6.94
2019-04-30T01:13:23.169Z,6.95
2019-04-30T01:14:23.281Z,6.98
2019-04-30T01:15:22.173Z,7.02
2019-04-30T01:16:23.648Z,7.03
2019-04-30T01:17:23.111Z,7.05
2019-04-30T01:18:23.506Z,7.07
2019-04-30T01:19:30.073Z,7.07
2019-04-30T01:20:24.072Z,7.15
2019-04-30T01:21:23.064Z,7.15
2019-04-30T01:22:28.431Z,7.10
2019-04-30T01:23:23.042Z,7.20
2019-04-30T01:24:23.472Z,7.12
2019-04-30T01:25:23.038Z,7.17
2019-04-30T01:26:22.862Z,7.15
2019-04-30T01:27:22.003Z,7.15
2019-04-30T01:28:24.300Z,7.20
2019-04-30T01:29:21.984Z,6.98
2019-04-30T01:30:22.886Z,6.99
2019-04-30T01:31:21.971Z,7.07
2019-04-30T01:32:21.950Z,7.03
2019-04-30T01:33:21.942Z,7.09
2019-04-30T01:34:21.929Z,7.05
2019-04-30T01:35:23.933Z,6.99
2019-04-30T01:36:22.903Z,7.09
2019-04-30T01:37:28.450Z,7.06
2019-04-30T01:38:22.884Z,6.98
2019-04-30T01:39:23.756Z,6.98
2019-04-30T01:40:22.877Z,7.09
2019-04-30T01:41:27.476Z,7.06
2019-04-30T01:42:22.833Z,7.03
2019-04-30T01:43:30.571Z,7.10
2019-04-30T01:44:22.821Z,7.02
2019-04-30T01:45:23.146Z,7.03
2019-04-30T01:46:22.801Z,6.98
2019-04-30T01:47:27.843Z,6.92
2019-04-30T01:48:22.771Z,6.92
2019-04-30T01:49:25.652Z,6.80
2019-04-30T01:50:22.768Z,6.77
2019-04-30T01:51:21.974Z,6.76
2019-04-30T01:52:21.727Z,6.67
2019-04-30T01:53:21.720Z,6.64
2019-04-30T01:54:24.321Z,6.48
2019-04-30T01:55:21.715Z,6.52
2019-04-30T01:56:21.690Z,6.48
2019-04-30T01:57:21.695Z,6.46
2019-04-30T01:58:21.665Z,6.38
2019-04-30T01:59:21.692Z,6.31
2019-04-30T02:00:21.664Z,6.34
2019-04-30T02:01:21.642Z,6.34
2019-04-30T02:02:21.620Z,6.44
2019-04-30T02:03:21.615Z,6.48
2019-04-30T02:04:21.600Z,6.48
2019-04-30T02:05:21.610Z,6.41
2019-04-30T02:06:21.580Z,6.33
2019-04-30T02:07:21.566Z,6.41
2019-04-30T02:08:21.560Z,6.44
2019-04-30T02:09:21.545Z,6.31
2019-04-30T02:10:21.560Z,6.31
2019-04-30T02:11:21.524Z,6.43
2019-04-30T02:12:21.896Z,6.38
2019-04-30T02:13:21.504Z,6.36
2019-04-30T02:14:21.489Z,6.30
2019-04-30T02:15:21.508Z,6.40
2019-04-30T02:16:21.472Z,6.40
2019-04-30T02:17:21.479Z,6.30
2019-04-30T02:18:21.456Z,6.22
2019-04-30T02:19:21.440Z,6.28
2019-04-30T02:20:21.450Z,6.28
2019-04-30T02:21:21.415Z,6.25
2019-04-30T02:22:21.410Z,6.21
2019-04-30T02:23:21.394Z,6.21
2019-04-30T02:24:21.386Z,6.12
2019-04-30T02:25:21.373Z,6.21
2019-04-30T02:26:21.388Z,6.18
2019-04-30T02:27:21.682Z,6.19
2019-04-30T02:28:21.345Z,6.06
2019-04-30T02:29:21.336Z,6.03
2019-04-30T02:30:21.318Z,6.09
2019-04-30T02:31:22.832Z,6.04
2019-04-30T02:32:21.295Z,6.14
2019-04-30T02:33:21.291Z,6.15
2019-04-30T02:34:22.214Z,6.09
2019-04-30T02:35:21.266Z,6.04
2019-04-30T02:36:21.271Z,6.04
2019-04-30T02:37:21.249Z,6.04
2019-04-30T02:38:21.239Z,6.15
2019-04-30T02:39:21.227Z,6.22
2019-04-30T02:40:21.216Z,6.12
2019-04-30T02:41:21.214Z,6.12
2019-04-30T02:42:21.187Z,6.06
2019-04-30T02:43:21.174Z,6.03
2019-04-30T02:44:21.166Z,6.03
2019-04-30T02:45:21.167Z,6.01
2019-04-30T02:46:21.182Z,6.08
2019-04-30T02:47:21.132Z,6.12
2019-04-30T02:48:21.150Z,6.12
2019-04-30T02:49:21.112Z,6.09
2019-04-30T02:50:22.572Z,6.12
2019-04-30T02:51:22.930Z,5.99
2019-04-30T02:52:21.080Z,5.97
2019-04-30T02:53:21.068Z,5.94
2019-04-30T02:54:23.890Z,5.97
2019-04-30T02:55:21.046Z,5.90
2019-04-30T02:56:21.156Z,5.91
2019-04-30T02:57:23.468Z,5.94
2019-04-30T02:58:21.254Z,5.93
2019-04-30T02:59:21.014Z,5.96
2019-04-30T03:00:21.120Z,5.79
2019-04-30T03:01:21.014Z,5.89
2019-04-30T03:02:20.979Z,5.71
2019-04-30T03:03:20.961Z,5.83
2019-04-30T03:04:20.951Z,5.79
2019-04-30T03:05:20.944Z,5.74
2019-04-30T03:06:23.684Z,5.75
2019-04-30T03:07:20.924Z,5.68
2019-04-30T03:08:20.905Z,5.61
2019-04-30T03:09:20.899Z,5.72
2019-04-30T03:10:20.886Z,5.58
2019-04-30T03:11:21.153Z,5.68
2019-04-30T03:12:20.905Z,5.60
2019-04-30T03:13:20.871Z,5.65
2019-04-30T03:14:20.841Z,5.58
2019-04-30T03:15:22.756Z,5.63
2019-04-30T03:16:21.036Z,5.57
2019-04-30T03:17:21.124Z,5.53
2019-04-30T03:18:22.969Z,5.58
2019-04-30T03:19:20.802Z,5.54
2019-04-30T03:20:34.606Z,5.65
2019-04-30T03:21:21.782Z,5.71
2019-04-30T03:22:20.757Z,5.76
2019-04-30T03:23:20.751Z,5.74
2019-04-30T03:24:20.734Z,5.72
2019-04-30T03:25:20.727Z,5.67
2019-04-30T03:26:20.715Z,5.65
2019-04-30T03:27:24.472Z,5.56
2019-04-30T03:28:20.689Z,5.67
2019-04-30T03:29:23.900Z,5.56
2019-04-30T03:30:21.942Z,5.67
2019-04-30T03:31:22.381Z,5.63
2019-04-30T03:32:22.505Z,5.61
2019-04-30T03:33:22.912Z,5.56
2019-04-30T03:34:25.604Z,5.56
2019-04-30T03:35:23.129Z,5.56
2019-04-30T03:36:21.923Z,5.51
2019-04-30T03:37:20.607Z,5.61
2019-04-30T03:38:20.587Z,5.51
2019-04-30T03:39:20.576Z,5.53
2019-04-30T03:40:20.569Z,5.39
2019-04-30T03:41:20.553Z,5.42
2019-04-30T03:42:20.568Z,5.42
2019-04-30T03:43:20.535Z,5.38
2019-04-30T03:44:25.489Z,5.43
2019-04-30T03:45:21.515Z,5.45
2019-04-30T03:46:20.497Z,5.43
2019-04-30T03:47:20.555Z,5.42
2019-04-30T03:48:20.478Z,5.27
2019-04-30T03:49:20.537Z,5.28
2019-04-30T03:50:20.451Z,5.35
2019-04-30T03:51:20.479Z,5.30
2019-04-30T03:52:20.457Z,5.25
2019-04-30T03:53:20.434Z,5.25
2019-04-30T03:54:20.412Z,5.27
2019-04-30T03:55:22.948Z,5.33
2019-04-30T03:56:22.824Z,5.33
2019-04-30T03:57:20.751Z,5.31
2019-04-30T03:58:21.455Z,5.43
2019-04-30T03:59:20.356Z,5.45
2019-04-30T04:00:20.500Z,5.43
2019-04-30T04:01:20.341Z,5.40
2019-04-30T04:02:20.979Z,5.25
2019-04-30T04:03:20.327Z,5.33
2019-04-30T04:04:20.312Z,5.27
2019-04-30T04:05:20.350Z,5.31
2019-04-30T04:06:21.466Z,5.30
2019-04-30T04:07:20.491Z,5.30
2019-04-30T04:08:20.300Z,5.25
2019-04-30T04:09:22.300Z,5.35
2019-04-30T04:10:20.241Z,5.48
2019-04-30T04:11:20.235Z,5.42
2019-04-30T04:12:20.724Z,5.49
2019-04-30T04:13:20.226Z,5.45
2019-04-30T04:14:20.194Z,5.42
2019-04-30T04:15:20.186Z,5.39
2019-04-30T04:16:20.180Z,5.36
2019-04-30T04:17:20.439Z,5.35
2019-04-30T04:18:20.390Z,5.48
2019-04-30T04:19:20.145Z,5.42
2019-04-30T04:20:20.471Z,5.43
2019-04-30T04:21:20.740Z,5.48
2019-04-30T04:22:20.768Z,5.46
2019-04-30T04:23:20.132Z,5.39
2019-04-30T04:24:20.604Z,5.48
2019-04-30T04:25:20.574Z,5.54
2019-04-30T04:26:20.387Z,5.43
2019-04-30T04:27:20.055Z,5.49
2019-04-30T04:28:20.374Z,5.53
2019-04-30T04:29:20.070Z,5.48
2019-04-30T04:30:20.585Z,5.53
2019-04-30T04:31:20.028Z,5.48
2019-04-30T04:32:23.949Z,5.53
2019-04-30T04:33:20.211Z,5.48
2019-04-30T04:34:20.058Z,5.46
2019-04-30T04:35:20.112Z,5.48
2019-04-30T04:36:20.156Z,5.46
2019-04-30T04:37:20.547Z,5.51
2019-04-30T04:38:20.576Z,5.53
2019-04-30T04:39:20.427Z,5.46
2019-04-30T04:40:21.109Z,5.58
2019-04-30T04:41:19.961Z,5.61
2019-04-30T04:42:19.990Z,5.54
2019-04-30T04:43:20.284Z,5.65
2019-04-30T04:44:20.491Z,5.63
2019-04-30T04:45:20.069Z,5.67
2019-04-30T04:46:20.542Z,5.64
2019-04-30T04:47:20.450Z,5.65
2019-04-30T04:48:23.256Z,5.68
2019-04-30T04:49:20.749Z,5.53
2019-04-30T04:50:20.237Z,5.64
2019-04-30T04:51:31.466Z,5.67
2019-04-30T04:52:22.002Z,5.61
2019-04-30T04:53:19.813Z,5.65
2019-04-30T04:54:20.342Z,5.71
2019-04-30T04:55:22.132Z,5.74
2019-04-30T04:56:19.744Z,5.81
2019-04-30T04:57:22.729Z,5.74
2019-04-30T04:58:21.479Z,5.82
2019-04-30T04:59:20.177Z,5.86
2019-04-30T05:00:19.713Z,5.85
2019-04-30T05:01:20.387Z,5.99
2019-04-30T05:02:19.680Z,5.96
2019-04-30T05:03:20.202Z,6.03
2019-04-30T05:04:20.119Z,6.03
2019-04-30T05:05:19.669Z,6.04
2019-04-30T05:06:21.743Z,6.08
2019-04-30T05:07:19.701Z,6.12
2019-04-30T05:08:19.614Z,6.19
2019-04-30T05:09:19.633Z,6.22
2019-04-30T05:10:19.592Z,6.18
2019-04-30T05:11:19.594Z,6.14
2019-04-30T05:13:20.560Z,6.19
2019-04-30T05:14:40.600Z,6.28
2019-04-30T05:15:19.612Z,6.19
2019-04-30T05:16:19.526Z,6.17
2019-04-30T05:17:40.515Z,6.25
2019-04-30T05:18:19.509Z,6.22
2019-04-30T05:19:19.514Z,6.31
2019-04-30T05:20:19.624Z,6.17
2019-04-30T05:21:19.481Z,6.28
2019-04-30T05:22:19.465Z,6.22
2019-04-30T05:23:21.925Z,6.31
2019-04-30T05:24:19.469Z,6.30
2019-04-30T05:25:19.439Z,6.28
2019-04-30T05:26:19.416Z,6.22
2019-04-30T05:27:19.808Z,6.21
2019-04-30T05:28:19.394Z,6.28
2019-04-30T05:29:19.409Z,6.33
2019-04-30T05:30:19.940Z,6.49
2019-04-30T05:31:21.144Z,6.54
2019-04-30T05:33:20.515Z,6.74
2019-04-30T05:34:19.331Z,6.80
2019-04-30T05:35:19.353Z,7.02
2019-04-30T05:36:19.343Z,7.13
2019-04-30T05:37:19.318Z,7.12
2019-04-30T05:38:19.287Z,7.27
2019-04-30T05:39:19.278Z,7.23
2019-04-30T05:40:19.297Z,7.17
2019-04-30T05:41:19.398Z,7.28
2019-04-30T05:42:19.251Z,7.16
2019-04-30T05:43:19.387Z,7.12
2019-04-30T05:44:19.226Z,7.17
2019-04-30T05:45:19.414Z,7.16
2019-04-30T05:46:19.590Z,7.12
2019-04-30T05:47:19.722Z,7.20
2019-04-30T05:48:19.199Z,7.23
2019-04-30T05:49:20.474Z,7.31
2019-04-30T05:50:19.996Z,7.32
2019-04-30T05:51:21.133Z,7.27
2019-04-30T05:52:19.976Z,7.35
2019-04-30T05:53:19.171Z,7.40
2019-04-30T05:54:19.128Z,7.42
2019-04-30T05:55:19.760Z,7.40
2019-04-30T05:56:19.411Z,7.46
2019-04-30T05:57:19.763Z,7.49
2019-04-30T05:58:19.827Z,7.53
2019-04-30T05:59:20.657Z,7.57
2019-04-30T06:00:19.272Z,7.67
2019-04-30T06:01:19.743Z,7.69
2019-04-30T06:02:19.515Z,7.64
2019-04-30T06:03:27.665Z,7.75
2019-04-30T06:04:20.018Z,7.80
2019-04-30T06:05:19.027Z,7.85
2019-04-30T06:06:19.452Z,7.80
2019-04-30T06:07:19.135Z,7.93
2019-04-30T06:08:19.264Z,7.98
2019-04-30T06:09:30.472Z,8.01
2019-04-30T06:10:19.953Z,8.02
2019-04-30T06:11:19.317Z,8.15
2019-04-30T06:12:20.299Z,8.19
2019-04-30T06:13:19.076Z,8.15
2019-04-30T06:14:18.900Z,8.23
2019-04-30T06:15:19.378Z,8.26
2019-04-30T06:16:18.925Z,8.26
2019-04-30T06:17:19.692Z,8.29
2019-04-30T06:18:20.422Z,8.37
2019-04-30T06:19:19.588Z,8.36
2019-04-30T06:20:20.998Z,8.28
2019-04-30T06:21:21.337Z,8.41
2019-04-30T06:22:19.129Z,8.48
2019-04-30T06:23:19.486Z,8.62
2019-04-30T06:24:18.876Z,8.61
2019-04-30T06:25:30.648Z,8.80
2019-04-30T06:26:20.691Z,8.84
2019-04-30T06:27:19.249Z,8.91
2019-04-30T06:28:19.586Z,8.91
2019-04-30T06:29:19.027Z,8.91
2019-04-30T06:30:19.810Z,8.89
2019-04-30T06:31:31.677Z,8.98
2019-04-30T06:32:19.726Z,8.98
2019-04-30T06:33:19.317Z,8.92
2019-04-30T06:34:19.765Z,8.95
2019-04-30T06:35:19.369Z,8.95
2019-04-30T06:36:19.117Z,8.95
2019-04-30T06:37:19.489Z,9.02
2019-04-30T06:38:18.654Z,8.95
2019-04-30T06:39:18.861Z,9.01
2019-04-30T06:40:19.622Z,9.02
2019-04-30T06:41:19.826Z,9.08
2019-04-30T06:42:19.476Z,9.04
2019-04-30T06:43:19.054Z,9.18
2019-04-30T06:44:19.487Z,9.11
2019-04-30T06:45:19.140Z,9.13
2019-04-30T06:46:18.813Z,9.10
2019-04-30T06:47:20.066Z,9.11
2019-04-30T06:48:19.960Z,9.13
2019-04-30T06:49:19.469Z,9.21
2019-04-30T06:50:19.427Z,9.24
2019-04-30T06:51:19.009Z,9.24
2019-04-30T06:52:22.991Z,9.21
2019-04-30T06:53:19.476Z,9.32
2019-04-30T06:54:19.165Z,9.39
2019-04-30T06:55:19.268Z,9.39
2019-04-30T06:56:18.945Z,9.35
2019-04-30T06:57:19.904Z,9.35
2019-04-30T06:58:20.555Z,9.50
2019-04-30T06:59:20.274Z,9.48
2019-04-30T07:00:20.672Z,9.54
2019-04-30T07:01:19.432Z,9.50
2019-04-30T07:02:19.692Z,9.47
2019-04-30T07:03:19.128Z,9.58
2019-04-30T07:04:19.472Z,9.65
2019-04-30T07:05:18.692Z,9.57
2019-04-30T07:06:29.165Z,9.65
2019-04-30T07:07:23.046Z,9.65
2019-04-30T07:08:19.320Z,9.64
2019-04-30T07:09:19.699Z,9.72
2019-04-30T07:10:20.315Z,9.75
2019-04-30T07:11:19.502Z,9.79
2019-04-30T07:12:27.328Z,9.79
2019-04-30T07:13:19.269Z,9.87
2019-04-30T07:14:19.560Z,9.83
2019-04-30T07:15:19.676Z,9.91
2019-04-30T07:16:19.017Z,9.87
2019-04-30T07:17:19.529Z,9.99
2019-04-30T07:18:18.997Z,10.02
2019-04-30T07:19:30.067Z,9.94
2019-04-30T07:20:19.318Z,10.01
2019-04-30T07:21:19.832Z,10.12
2019-04-30T07:22:20.707Z,10.09
2019-04-30T07:23:19.148Z,10.12
2019-04-30T07:24:20.796Z,10.18
2019-04-30T07:25:19.551Z,10.09
2019-04-30T07:26:22.722Z,10.12
2019-04-30T07:27:23.910Z,10.18
2019-04-30T07:28:19.151Z,10.11
2019-04-30T07:29:19.618Z,10.26
2019-04-30T07:30:19.260Z,10.22
2019-04-30T07:31:19.227Z,10.18
2019-04-30T07:32:19.769Z,10.18
2019-04-30T07:33:20.726Z,10.15
2019-04-30T07:34:19.660Z,10.15
2019-04-30T07:35:19.610Z,10.23
2019-04-30T07:36:19.511Z,10.27
2019-04-30T07:37:24.215Z,10.29
2019-04-30T07:38:19.464Z,10.38
2019-04-30T07:39:19.228Z,10.47
2019-04-30T07:40:19.016Z,10.41
2019-04-30T07:41:19.044Z,10.45
2019-04-30T07:42:19.276Z,10.45
2019-04-30T07:43:18.980Z,10.51
2019-04-30T07:44:32.646Z,10.51
2019-04-30T07:45:19.601Z,10.63
2019-04-30T07:46:19.797Z,10.61
2019-04-30T07:47:19.436Z,10.56
2019-04-30T07:48:21.130Z,10.66
2019-04-30T07:49:20.573Z,10.70
2019-04-30T07:50:20.802Z,10.64
2019-04-30T07:51:20.953Z,10.66
2019-04-30T07:52:20.995Z,10.68
2019-04-30T07:53:18.796Z,10.81
2019-04-30T07:54:18.952Z,10.82
2019-04-30T07:55:19.628Z,10.86
2019-04-30T07:56:25.614Z,10.86
2019-04-30T07:57:19.361Z,10.91
2019-04-30T07:58:20.477Z,10.99
2019-04-30T07:59:19.941Z,11.00
2019-04-30T08:00:19.410Z,11.07
2019-04-30T08:01:19.567Z,11.06
2019-04-30T08:02:20.576Z,11.14
2019-04-30T08:03:20.616Z,11.14
2019-04-30T08:04:18.838Z,11.09
2019-04-30T08:05:19.874Z,11.07
2019-04-30T08:06:19.040Z,11.15
2019-04-30T08:07:19.684Z,11.11
2019-04-30T08:08:25.123Z,11.07
2019-04-30T08:09:19.679Z,11.19
2019-04-30T08:10:18.816Z,11.19
2019-04-30T08:11:25.744Z,11.14
2019-04-30T08:12:25.798Z,11.15
2019-04-30T08:13:21.224Z,11.19
2019-04-30T08:14:18.781Z,11.19
2019-04-30T08:15:19.621Z,11.35
2019-04-30T08:16:18.702Z,11.25
2019-04-30T08:17:18.833Z,11.24
2019-04-30T08:18:18.470Z,11.29
2019-04-30T08:19:19.121Z,11.35
2019-04-30T08:20:19.494Z,11.46
2019-04-30T08:21:18.987Z,11.39
2019-04-30T08:22:19.472Z,11.43
2019-04-30T08:23:33.483Z,11.52
2019-04-30T08:24:19.339Z,11.67
2019-04-30T08:25:19.830Z,11.62
2019-04-30T08:26:18.799Z,11.62
2019-04-30T08:27:19.131Z,11.58
2019-04-30T08:28:18.714Z,11.72
2019-04-30T08:29:19.413Z,11.70
2019-04-30T08:30:23.945Z,11.75
2019-04-30T08:31:19.586Z,11.72
2019-04-30T08:32:19.063Z,11.76
2019-04-30T08:33:19.229Z,11.72
2019-04-30T08:34:17.382Z,11.79
2019-04-30T08:35:19.536Z,11.86
2019-04-30T08:36:19.531Z,11.88
2019-04-30T08:37:19.612Z,11.86
2019-04-30T08:38:19.088Z,11.95
2019-04-30T08:39:17.320Z,11.95
2019-04-30T08:40:19.019Z,12.05
2019-04-30T08:41:19.161Z,11.98
2019-04-30T08:42:28.988Z,11.91
2019-04-30T08:43:19.859Z,12.01
2019-04-30T08:44:20.871Z,12.09
2019-04-30T08:45:17.257Z,11.99
2019-04-30T08:46:19.051Z,12.02
2019-04-30T08:47:18.783Z,12.10
2019-04-30T08:48:18.966Z,12.05
2019-04-30T08:49:19.363Z,12.14
2019-04-30T08:50:19.584Z,12.21
2019-04-30T08:51:19.078Z,12.23
2019-04-30T08:52:19.232Z,12.31
2019-04-30T08:53:27.545Z,12.24
2019-04-30T08:54:19.712Z,12.29
2019-04-30T08:55:19.651Z,12.34
2019-04-30T08:56:21.680Z,12.39
2019-04-30T08:57:19.094Z,12.42
2019-04-30T08:58:20.331Z,12.38
2019-04-30T08:59:19.176Z,12.54
2019-04-30T09:00:17.112Z,12.52
2019-04-30T09:01:19.217Z,12.64
2019-04-30T09:02:19.551Z,12.54
2019-04-30T09:03:17.075Z,12.68
2019-04-30T09:04:17.051Z,12.65
2019-04-30T09:05:18.548Z,12.67
2019-04-30T09:06:17.037Z,12.64
2019-04-30T09:07:17.023Z,12.67
2019-04-30T09:08:17.055Z,12.64
2019-04-30T09:09:18.797Z,12.64
2019-04-30T09:10:19.103Z,12.67
2019-04-30T09:11:25.298Z,12.75
2019-04-30T09:12:19.613Z,12.72
2019-04-30T09:13:19.059Z,12.71
2019-04-30T09:14:18.699Z,12.82
2019-04-30T09:15:18.727Z,12.79
2019-04-30T09:16:16.921Z,12.77
2019-04-30T09:17:16.921Z,12.83
2019-04-30T09:18:18.931Z,12.90
2019-04-30T09:19:16.898Z,12.92
2019-04-30T09:20:16.894Z,12.85
2019-04-30T09:21:18.651Z,12.93
2019-04-30T09:22:16.876Z,13.07
2019-04-30T09:23:18.641Z,13.11
2019-04-30T09:24:16.846Z,13.15
2019-04-30T09:25:16.827Z,13.19
2019-04-30T09:26:18.668Z,13.17
2019-04-30T09:27:16.802Z,13.15
2019-04-30T09:28:16.806Z,13.20
2019-04-30T09:29:16.777Z,13.25
2019-04-30T09:30:18.696Z,13.33
2019-04-30T09:31:16.764Z,13.30
2019-04-30T09:32:16.747Z,13.33
2019-04-30T09:33:16.758Z,13.42
2019-04-30T09:34:18.582Z,13.41
2019-04-30T09:35:16.713Z,13.41
2019-04-30T09:36:16.865Z,13.52
2019-04-30T09:37:18.524Z,13.55
2019-04-30T09:38:16.698Z,13.49
2019-04-30T09:39:16.677Z,13.54
2019-04-30T09:40:20.504Z,13.54
2019-04-30T09:41:16.658Z,13.54
2019-04-30T09:42:16.639Z,13.59
2019-04-30T09:43:18.299Z,13.70
2019-04-30T09:44:16.608Z,13.75
2019-04-30T09:45:18.581Z,13.75
2019-04-30T09:46:25.950Z,13.77
2019-04-30T09:47:17.578Z,13.91
2019-04-30T09:48:18.827Z,13.91
2019-04-30T09:49:16.571Z,13.92
2019-04-30T09:50:16.555Z,13.97
2019-04-30T09:51:16.952Z,13.97
2019-04-30T09:52:18.834Z,13.96
2019-04-30T09:53:16.749Z,13.99
2019-04-30T09:54:16.922Z,14.00
2019-04-30T09:55:16.490Z,13.85
2019-04-30T09:56:16.498Z,13.92
2019-04-30T09:57:16.480Z,13.95
2019-04-30T09:58:18.251Z,14.07
2019-04-30T09:59:16.464Z,14.09
2019-04-30T10:00:16.441Z,14.03
2019-04-30T10:01:16.429Z,14.12
2019-04-30T10:02:16.428Z,14.02
2019-04-30T10:03:19.058Z,14.14
2019-04-30T10:04:16.982Z,14.18
2019-04-30T10:05:18.058Z,14.18
2019-04-30T10:06:16.380Z,14.28
2019-04-30T10:07:16.419Z,14.27
2019-04-30T10:08:16.355Z,14.33
2019-04-30T10:09:16.347Z,14.28
2019-04-30T10:10:16.356Z,14.28
2019-04-30T10:11:16.315Z,14.32
2019-04-30T10:12:16.346Z,14.32
2019-04-30T10:13:16.343Z,14.43
2019-04-30T10:14:16.309Z,14.37
2019-04-30T10:15:16.279Z,14.50
2019-04-30T10:16:16.265Z,14.46
2019-04-30T10:17:16.248Z,14.47
2019-04-30T10:18:16.272Z,14.40
2019-04-30T10:19:16.233Z,14.55
2019-04-30T10:20:16.223Z,14.55
2019-04-30T10:21:16.211Z,14.57
2019-04-30T10:22:16.208Z,14.64
2019-04-30T10:23:16.217Z,14.60
2019-04-30T10:24:16.186Z,14.62
2019-04-30T10:25:16.173Z,14.60
2019-04-30T10:26:16.156Z,14.70
2019-04-30T10:27:16.147Z,14.61
2019-04-30T10:28:16.154Z,14.62
2019-04-30T10:29:16.131Z,14.60
2019-04-30T10:30:16.114Z,14.75
2019-04-30T10:31:16.113Z,14.78
2019-04-30T10:32:16.087Z,14.77
2019-04-30T10:33:16.096Z,14.77
2019-04-30T10:34:16.064Z,14.77
2019-04-30T10:35:16.061Z,14.83
2019-04-30T10:36:16.055Z,14.83
2019-04-30T10:37:16.042Z,14.86
2019-04-30T10:38:16.060Z,14.98
2019-04-30T10:39:16.018Z,14.94
2019-04-30T10:40:15.997Z,15.02
2019-04-30T10:41:15.989Z,15.01
2019-04-30T10:42:15.981Z,14.98
2019-04-30T10:43:16.000Z,15.02
2019-04-30T10:44:16.194Z,15.09
2019-04-30T10:45:15.957Z,15.06
2019-04-30T10:46:15.941Z,15.02
2019-04-30T10:47:15.926Z,14.99
2019-04-30T10:48:15.928Z,15.10
2019-04-30T10:49:15.967Z,15.13
2019-04-30T10:50:15.892Z,15.17
2019-04-30T10:51:15.880Z,15.16
2019-04-30T10:52:15.868Z,15.14
2019-04-30T10:53:15.862Z,15.16
2019-04-30T10:54:24.143Z,15.19
2019-04-30T10:55:16.841Z,15.27
2019-04-30T10:56:15.830Z,15.34
2019-04-30T10:57:15.823Z,15.21
2019-04-30T10:58:15.803Z,15.25
2019-04-30T10:59:15.814Z,15.35
2019-04-30T11:00:15.782Z,15.35
2019-04-30T11:01:15.772Z,15.32
2019-04-30T11:02:15.764Z,15.29
2019-04-30T11:03:19.848Z,15.36
2019-04-30T11:04:16.750Z,15.31
2019-04-30T11:05:15.735Z,15.43
2019-04-30T11:06:15.718Z,15.44
2019-04-30T11:07:15.708Z,15.60
2019-04-30T11:08:15.708Z,15.89
2019-04-30T11:09:15.716Z,16.12
2019-04-30T11:10:15.707Z,16.63
2019-04-30T11:11:15.666Z,17.40
2019-04-30T11:12:15.646Z,18.11
2019-04-30T11:13:15.649Z,18.87
2019-04-30T11:14:15.659Z,19.28
2019-04-30T11:15:15.614Z,19.59
2019-04-30T11:16:15.759Z,19.78
2019-04-30T11:17:15.736Z,20.24
2019-04-30T11:18:15.850Z,20.84
2019-04-30T11:19:15.832Z,21.27
2019-04-30T11:20:15.797Z,21.69
2019-04-30T11:21:15.734Z,21.96
2019-04-30T11:22:15.692Z,22.09
2019-04-30T11:23:15.748Z,22.61
2019-04-30T11:24:15.749Z,22.90
2019-04-30T11:25:15.710Z,23.17
2019-04-30T11:26:15.978Z,23.57
2019-04-30T11:27:16.127Z,23.69
2019-04-30T11:28:15.890Z,23.87
2019-04-30T11:29:15.729Z,23.84
2019-04-30T11:30:21.369Z,23.54
2019-04-30T11:31:16.792Z,23.39
2019-04-30T11:32:15.613Z,23.12
2019-04-30T11:33:15.713Z,22.91
2019-04-30T11:34:15.424Z,23.22
2019-04-30T11:35:15.433Z,23.48
2019-04-30T11:36:15.414Z,24.00
2019-04-30T11:37:15.419Z,24.52
2019-04-30T11:38:15.384Z,24.73
2019-04-30T11:39:15.369Z,24.15
2019-04-30T11:40:15.381Z,24.27
2019-04-30T11:41:15.351Z,24.45
2019-04-30T11:42:15.351Z,24.80
2019-04-30T11:43:15.344Z,24.96
2019-04-30T11:44:27.773Z,25.25
2019-04-30T11:45:16.353Z,25.42
2019-04-30T11:46:15.321Z,25.67
2019-04-30T11:47:15.291Z,26.10
2019-04-30T11:48:15.299Z,26.20
2019-04-30T11:49:15.287Z,26.54
2019-04-30T11:50:15.281Z,26.73
2019-04-30T11:51:15.257Z,26.51
2019-04-30T11:52:15.242Z,26.35
2019-04-30T11:53:25.420Z,26.37
2019-04-30T11:54:16.222Z,26.69
2019-04-30T11:55:15.248Z,26.75
2019-04-30T11:56:15.217Z,26.81
2019-04-30T11:57:15.190Z,26.99
2019-04-30T11:58:21.617Z,26.84
2019-04-30T11:59:16.189Z,27.03
2019-04-30T12:00:15.208Z,27.13
2019-04-30T12:01:15.164Z,27.29
2019-04-30T12:02:15.146Z,27.41
2019-04-30T12:03:15.140Z,27.74
2019-04-30T12:04:15.130Z,28.02
2019-04-30T12:05:15.137Z,28.06
2019-04-30T12:06:15.125Z,28.54
2019-04-30T12:07:15.145Z,28.43
2019-04-30T12:08:15.085Z,28.25
2019-04-30T12:09:15.078Z,28.27
2019-04-30T12:10:15.087Z,28.43
2019-04-30T12:11:15.424Z,28.67
2019-04-30T12:12:15.046Z,28.98
2019-04-30T12:13:15.671Z,29.00
2019-04-30T12:14:15.030Z,29.02
2019-04-30T12:15:15.045Z,28.92
2019-04-30T12:16:15.017Z,28.73
2019-04-30T12:17:15.001Z,28.78
2019-04-30T12:18:14.999Z,28.83
2019-04-30T12:19:14.996Z,28.89
2019-04-30T12:20:15.012Z,29.08
2019-04-30T12:21:14.961Z,29.23
2019-04-30T12:22:14.960Z,29.41
2019-04-30T12:23:14.966Z,29.64
2019-04-30T12:24:14.937Z,29.86
2019-04-30T12:25:14.940Z,29.61
2019-04-30T12:26:14.913Z,29.09
2019-04-30T12:27:14.908Z,29.14
2019-04-30T12:28:14.903Z,29.63
2019-04-30T12:29:14.880Z,30.07
2019-04-30T12:30:14.888Z,29.94
2019-04-30T12:31:14.881Z,30.20
2019-04-30T12:32:14.854Z,30.54
2019-04-30T12:33:14.846Z,30.02
2019-04-30T12:34:14.833Z,29.31
2019-04-30T12:35:14.852Z,28.78
2019-04-30T12:36:14.851Z,28.54
2019-04-30T12:37:14.815Z,28.55
2019-04-30T12:38:14.798Z,28.83
2019-04-30T12:39:14.828Z,28.11
2019-04-30T12:40:26.749Z,27.87
2019-04-30T12:41:15.767Z,27.94
2019-04-30T12:42:14.759Z,27.51
2019-04-30T12:43:14.754Z,27.09
2019-04-30T12:44:14.779Z,27.31
2019-04-30T12:45:14.768Z,27.67
2019-04-30T12:46:14.723Z,28.21
2019-04-30T12:47:14.737Z,28.40
2019-04-30T12:48:14.704Z,28.33
2019-04-30T12:49:14.699Z,28.40
2019-04-30T12:50:14.709Z,28.15
2019-04-30T12:51:14.700Z,27.39
2019-04-30T12:52:14.673Z,27.66
2019-04-30T12:53:14.660Z,27.57
2019-04-30T12:54:14.667Z,28.22
2019-04-30T12:55:15.723Z,28.81
2019-04-30T12:56:14.643Z,28.80
2019-04-30T12:57:14.638Z,28.92
2019-04-30T12:58:14.610Z,29.05
2019-04-30T12:59:14.591Z,29.19
2019-04-30T13:00:14.607Z,29.34
2019-04-30T13:01:14.578Z,29.45
2019-04-30T13:02:14.581Z,29.85
2019-04-30T13:03:14.583Z,30.02
2019-04-30T13:04:14.552Z,29.97
2019-04-30T13:05:14.547Z,29.67
2019-04-30T13:06:14.952Z,29.73
2019-04-30T13:07:15.124Z,30.17
2019-04-30T13:08:14.960Z,30.54